createdAt,value
2023-02-21T00:01:13.876Z,8.08
2023-02-21T00:04:17.812Z,8.12
2023-02-21T00:07:21.600Z,8.15
2023-02-21T00:10:25.511Z,8.15
2023-02-21T00:13:29.360Z,8.18
2023-02-21T00:16:35.402Z,8.18
2023-02-21T00:19:39.219Z,8.14
2023-02-21T00:22:43.096Z,8.17
2023-02-21T00:25:46.973Z,8.15
2023-02-21T00:28:50.864Z,8.18
2023-02-21T00:31:55.984Z,8.17
2023-02-21T00:34:59.791Z,8.22
2023-02-21T00:38:03.461Z,8.20
2023-02-21T00:41:07.144Z,8.20
2023-02-21T00:44:10.917Z,8.15
2023-02-21T00:47:15.848Z,8.16
2023-02-21T00:50:19.708Z,8.17
2023-02-21T00:53:23.333Z,8.21
2023-02-21T00:56:27.180Z,8.19
2023-02-21T00:59:31.087Z,8.16
2023-02-21T01:02:36.054Z,8.18
2023-02-21T01:05:40.131Z,8.19
2023-02-21T01:08:44.074Z,8.22
2023-02-21T01:11:47.776Z,8.25
2023-02-21T01:14:51.599Z,8.23
2023-02-21T01:17:56.830Z,8.27
2023-02-21T01:21:00.449Z,8.26
2023-02-21T01:24:04.116Z,8.26
2023-02-21T01:27:07.854Z,8.29
2023-02-21T01:30:11.691Z,8.29
2023-02-21T01:33:17.268Z,8.30
2023-02-21T01:36:22.503Z,8.32
2023-02-21T01:39:26.242Z,8.32
2023-02-21T01:42:30.162Z,8.33
2023-02-21T01:45:58.766Z,8.33
2023-02-21T01:49:03.902Z,8.35
2023-02-21T01:52:07.596Z,8.36
2023-02-21T01:55:11.932Z,8.34
2023-02-21T01:58:15.627Z,8.36
2023-02-21T02:01:19.475Z,8.37
2023-02-21T02:04:24.437Z,8.39
2023-02-21T02:07:28.299Z,8.41
2023-02-21T02:10:32.302Z,8.44
2023-02-21T02:13:33.003Z,8.42
2023-02-21T02:16:21.018Z,8.43
2023-02-21T02:19:36.866Z,8.46
2023-02-21T02:22:41.281Z,8.45
2023-02-21T02:25:33.386Z,8.42
2023-02-21T02:28:44.456Z,8.43
2023-02-21T02:31:39.786Z,8.43
2023-02-21T02:34:41.922Z,8.44
2023-02-21T02:37:31.503Z,8.45
2023-02-21T02:40:20.328Z,8.45
2023-02-21T02:43:10.487Z,8.51
2023-02-21T02:45:57.607Z,8.46
2023-02-21T02:48:44.790Z,8.47
2023-02-21T02:51:31.564Z,8.45
2023-02-21T02:54:20.611Z,8.45
2023-02-21T02:57:10.377Z,8.43
2023-02-21T02:59:57.179Z,8.43
2023-02-21T03:02:47.388Z,8.42
2023-02-21T03:05:37.362Z,8.46
2023-02-21T03:08:24.577Z,8.43
2023-02-21T03:11:12.688Z,8.44
2023-02-21T03:14:00.111Z,8.46
2023-02-21T03:16:47.017Z,8.43
2023-02-21T03:19:34.338Z,8.45
2023-02-21T03:22:21.110Z,8.42
2023-02-21T03:25:07.001Z,8.46
2023-02-21T03:27:56.183Z,8.44
2023-02-21T03:30:44.879Z,8.43
2023-02-21T03:33:31.377Z,8.44
2023-02-21T03:36:17.230Z,8.44
2023-02-21T03:39:03.568Z,8.42
2023-02-21T03:41:49.345Z,8.40
2023-02-21T03:44:36.981Z,8.36
2023-02-21T03:47:24.318Z,8.36
2023-02-21T03:50:11.138Z,8.37
2023-02-21T03:53:00.442Z,8.38
2023-02-21T03:55:47.249Z,8.34
2023-02-21T03:58:39.560Z,8.36
2023-02-21T04:01:28.797Z,8.37
2023-02-21T04:04:15.170Z,8.33
2023-02-21T04:07:02.021Z,8.31
2023-02-21T04:09:48.187Z,8.30
2023-02-21T04:12:39.609Z,8.29
2023-02-21T04:15:26.083Z,8.30
2023-02-21T04:18:13.173Z,8.31
2023-02-21T04:20:59.976Z,8.32
2023-02-21T04:23:45.815Z,8.29
2023-02-21T04:26:31.671Z,8.33
2023-02-21T04:29:17.989Z,8.30
2023-02-21T04:32:04.115Z,8.28
2023-02-21T04:34:52.722Z,8.29
2023-02-21T04:37:39.072Z,8.30
2023-02-21T04:40:25.814Z,8.29
2023-02-21T04:43:11.690Z,8.29
2023-02-21T04:45:57.689Z,8.30
2023-02-21T04:48:44.678Z,8.30
2023-02-21T04:51:32.037Z,8.27
2023-02-21T04:54:17.811Z,8.27
2023-02-21T04:57:03.588Z,8.30
2023-02-21T04:59:49.377Z,8.30
2023-02-21T05:02:35.515Z,8.31
2023-02-21T05:05:21.404Z,8.32
2023-02-21T05:08:09.056Z,8.27
2023-02-21T05:10:55.598Z,8.30
2023-02-21T05:13:41.586Z,8.27
2023-02-21T05:16:27.493Z,8.30
2023-02-21T05:19:13.726Z,8.31
2023-02-21T05:22:00.132Z,8.30
2023-02-21T05:24:48.938Z,8.31
2023-02-21T05:27:34.901Z,8.31
2023-02-21T05:30:22.194Z,8.30
2023-02-21T05:33:08.429Z,8.32
2023-02-21T05:35:54.313Z,8.31
2023-02-21T05:38:47.357Z,8.29
2023-02-21T05:41:35.601Z,8.29
2023-02-21T05:44:21.634Z,8.28
2023-02-21T05:47:07.561Z,8.29
2023-02-21T05:49:53.697Z,8.28
2023-02-21T05:52:39.555Z,8.26
2023-02-21T05:55:25.869Z,8.30
2023-02-21T05:58:13.001Z,8.25
2023-02-21T06:00:58.697Z,8.26
2023-02-21T06:03:44.719Z,8.28
2023-02-21T06:06:30.842Z,8.30
2023-02-21T06:09:16.771Z,8.31
2023-02-21T06:12:02.547Z,8.35
2023-02-21T06:14:49.854Z,8.32
2023-02-21T06:17:36.893Z,8.33
2023-02-21T06:20:23.000Z,8.28
2023-02-21T06:23:08.671Z,8.31
2023-02-21T06:25:54.464Z,8.33
2023-02-21T06:28:40.097Z,8.32
2023-02-21T06:31:27.343Z,8.33
2023-02-21T06:34:13.254Z,8.36
2023-02-21T06:36:58.903Z,8.35
2023-02-21T06:39:44.858Z,8.30
2023-02-21T06:42:30.704Z,8.35
2023-02-21T06:45:16.618Z,8.33
2023-02-21T06:48:04.367Z,8.36
2023-02-21T06:50:50.477Z,8.38
2023-02-21T06:53:36.228Z,8.37
2023-02-21T06:56:22.152Z,8.38
2023-02-21T06:59:08.137Z,8.40
2023-02-21T07:01:53.891Z,8.36
2023-02-21T07:04:41.055Z,8.40
2023-02-21T07:07:26.820Z,8.42
2023-02-21T07:10:13.116Z,8.43
2023-02-21T07:12:59.120Z,8.43
2023-02-21T07:15:44.882Z,8.42
2023-02-21T07:18:30.553Z,8.44
2023-02-21T07:21:18.201Z,8.43
2023-02-21T07:24:04.204Z,8.44
2023-02-21T07:26:49.942Z,8.46
2023-02-21T07:29:35.694Z,8.46
2023-02-21T07:32:22.447Z,8.45
2023-02-21T07:35:08.519Z,8.48
2023-02-21T07:37:55.633Z,8.51
2023-02-21T07:40:41.468Z,8.46
2023-02-21T07:43:27.451Z,8.47
2023-02-21T07:46:13.522Z,8.47
2023-02-21T07:48:59.609Z,8.47
2023-02-21T07:51:45.455Z,8.48
2023-02-21T07:54:32.631Z,8.53
2023-02-21T07:57:18.989Z,8.52
2023-02-21T08:00:05.500Z,8.51
2023-02-21T08:02:59.004Z,8.58
2023-02-21T08:05:45.924Z,8.57
2023-02-21T08:08:31.929Z,8.63
2023-02-21T08:11:19.150Z,8.63
2023-02-21T08:14:04.958Z,8.60
2023-02-21T08:16:50.878Z,8.62
2023-02-21T08:19:36.565Z,8.62
2023-02-21T08:22:22.311Z,8.66
2023-02-21T08:25:08.268Z,8.64
2023-02-21T08:27:55.578Z,8.69
2023-02-21T08:30:41.774Z,8.73
2023-02-21T08:33:27.539Z,8.72
2023-02-21T08:36:13.491Z,8.77
2023-02-21T08:38:59.344Z,8.79
2023-02-21T08:41:45.931Z,8.78
2023-02-21T08:44:33.062Z,8.83
2023-02-21T08:47:19.116Z,8.80
2023-02-21T08:50:05.334Z,8.80
2023-02-21T08:52:51.596Z,8.83
2023-02-21T08:55:37.584Z,8.85
2023-02-21T08:58:24.288Z,8.86
2023-02-21T09:01:11.667Z,8.87
2023-02-21T09:03:57.754Z,8.87
2023-02-21T09:06:43.753Z,8.89
2023-02-21T09:09:30.491Z,8.92
2023-02-21T09:12:16.291Z,8.93
2023-02-21T09:15:02.060Z,8.99
2023-02-21T09:17:50.664Z,9.03
2023-02-21T09:20:41.501Z,9.04
2023-02-21T09:23:28.357Z,9.08
2023-02-21T09:26:14.121Z,9.15
2023-02-21T09:29:00.064Z,9.15
2023-02-21T09:31:45.941Z,9.23
2023-02-21T09:34:33.354Z,9.21
2023-02-21T09:37:19.179Z,9.26
2023-02-21T09:40:07.043Z,9.29
2023-02-21T09:42:53.934Z,9.35
2023-02-21T09:45:40.034Z,9.39
2023-02-21T09:48:26.024Z,9.48
2023-02-21T09:51:13.391Z,9.54
2023-02-21T09:53:59.933Z,9.60
2023-02-21T09:56:46.181Z,9.64
2023-02-21T09:59:32.040Z,9.73
2023-02-21T10:02:21.706Z,9.79
2023-02-21T10:05:08.993Z,9.79
2023-02-21T10:07:57.995Z,9.85
2023-02-21T10:10:44.798Z,9.93
2023-02-21T10:13:36.344Z,9.97
2023-02-21T10:16:23.131Z,10.01
2023-02-21T10:19:12.283Z,9.98
2023-02-21T10:21:59.345Z,10.03
2023-02-21T10:24:46.425Z,10.04
2023-02-21T10:27:32.664Z,10.01
2023-02-21T10:30:20.246Z,10.05
2023-02-21T10:33:06.550Z,10.10
2023-02-21T10:35:54.847Z,10.03
2023-02-21T10:38:40.709Z,10.08
2023-02-21T10:41:28.887Z,10.08
2023-02-21T10:44:15.412Z,10.17
2023-02-21T10:47:02.686Z,10.23
2023-02-21T10:49:49.076Z,10.22
2023-02-21T10:52:37.049Z,10.31
2023-02-21T10:55:32.781Z,10.44
2023-02-21T10:58:28.783Z,10.47
2023-02-21T11:01:16.076Z,10.57
2023-02-21T11:04:02.990Z,10.59
2023-02-21T11:06:49.426Z,10.67
2023-02-21T11:09:37.158Z,10.74
2023-02-21T11:12:24.228Z,10.76
2023-02-21T11:15:18.377Z,10.86
2023-02-21T11:18:06.102Z,10.81
2023-02-21T11:20:52.918Z,10.93
2023-02-21T11:23:39.138Z,10.96
2023-02-21T11:26:24.889Z,10.99
2023-02-21T11:29:11.193Z,11.08
2023-02-21T11:31:58.458Z,11.19
2023-02-21T11:34:48.427Z,11.26
2023-02-21T11:37:34.679Z,11.29
2023-02-21T11:40:32.495Z,11.45
2023-02-21T11:43:22.750Z,11.41
2023-02-21T11:46:11.990Z,11.42
2023-02-21T11:49:00.964Z,11.54
2023-02-21T11:51:46.885Z,11.59
2023-02-21T11:54:32.770Z,11.63
2023-02-21T11:57:21.198Z,11.64
2023-02-21T12:00:10.068Z,11.63
2023-02-21T12:03:02.086Z,11.67
2023-02-21T12:05:52.951Z,11.63
2023-02-21T12:08:40.785Z,11.66
2023-02-21T12:11:32.804Z,11.74
2023-02-21T12:14:22.790Z,11.86
2023-02-21T12:17:14.939Z,11.87
2023-02-21T12:20:06.402Z,11.86
2023-02-21T12:23:02.503Z,11.85
2023-02-21T12:25:53.802Z,11.92
2023-02-21T12:28:45.181Z,12.06
2023-02-21T12:31:42.479Z,12.45
2023-02-21T12:34:32.452Z,12.69
2023-02-21T12:37:20.684Z,12.78
2023-02-21T12:40:14.101Z,13.14
2023-02-21T12:43:05.348Z,13.42
2023-02-21T12:45:54.952Z,13.63
2023-02-21T12:48:42.387Z,13.72
2023-02-21T12:51:29.835Z,13.97
2023-02-21T12:54:16.994Z,13.90
2023-02-21T12:57:05.896Z,13.87
2023-02-21T12:59:54.829Z,13.86
2023-02-21T13:02:42.096Z,13.82
2023-02-21T13:05:29.195Z,13.78
2023-02-21T13:08:16.221Z,13.71
2023-02-21T13:11:04.619Z,13.66
2023-02-21T13:13:51.924Z,13.55
2023-02-21T13:16:37.591Z,13.52
2023-02-21T13:19:23.418Z,13.43
2023-02-21T13:22:46.006Z,13.33
2023-02-21T13:25:55.065Z,13.24
2023-02-21T13:28:41.586Z,13.16
2023-02-21T13:31:29.386Z,13.02
2023-02-21T13:34:20.548Z,13.05
2023-02-21T13:37:06.853Z,12.87
2023-02-21T13:39:54.447Z,12.84
2023-02-21T13:42:41.298Z,12.75
2023-02-21T13:45:27.378Z,12.62
2023-02-21T13:48:22.559Z,12.54
2023-02-21T13:51:08.682Z,12.46
2023-02-21T13:54:09.338Z,12.22
2023-02-21T13:56:55.415Z,12.14
2023-02-21T13:59:41.105Z,12.12
2023-02-21T14:02:30.664Z,12.03
2023-02-21T14:05:18.507Z,11.93
2023-02-21T14:08:05.066Z,11.92
2023-02-21T14:10:51.499Z,11.79
2023-02-21T14:13:39.289Z,11.81
2023-02-21T14:16:26.625Z,11.77
2023-02-21T14:19:13.202Z,11.62
2023-02-21T14:22:03.444Z,11.46
2023-02-21T14:24:49.873Z,11.46
2023-02-21T14:27:37.561Z,11.33
2023-02-21T14:30:31.272Z,11.35
2023-02-21T14:33:20.029Z,11.27
2023-02-21T14:36:06.917Z,11.14
2023-02-21T14:38:54.153Z,11.04
2023-02-21T14:41:43.961Z,10.97
2023-02-21T14:44:31.353Z,11.03
2023-02-21T14:47:40.312Z,10.87
2023-02-21T14:50:31.508Z,10.89
2023-02-21T14:53:29.155Z,10.87
2023-02-21T14:56:29.785Z,10.75
2023-02-21T14:59:27.766Z,10.70
2023-02-21T15:02:18.769Z,10.64
2023-02-21T15:05:07.574Z,10.62
2023-02-21T15:07:56.265Z,10.52
2023-02-21T15:10:42.785Z,10.45
2023-02-21T15:13:29.813Z,10.45
2023-02-21T15:16:17.142Z,10.41
2023-02-21T15:19:03.012Z,10.38
2023-02-21T15:21:48.830Z,10.35
2023-02-21T15:24:34.587Z,10.31
2023-02-21T15:27:20.834Z,10.22
2023-02-21T15:30:07.781Z,10.20
2023-02-21T15:32:56.870Z,10.14
2023-02-21T15:35:44.670Z,10.08
2023-02-21T15:38:31.786Z,10.05
2023-02-21T15:41:20.292Z,9.96
2023-02-21T15:44:07.239Z,9.94
2023-02-21T15:46:55.435Z,9.90
2023-02-21T15:49:43.388Z,9.88
2023-02-21T15:52:30.249Z,9.80
2023-02-21T15:55:22.778Z,9.82
2023-02-21T15:58:19.150Z,9.78
2023-02-21T16:01:07.490Z,9.74
2023-02-21T16:03:54.661Z,9.72
2023-02-21T16:06:45.509Z,9.66
2023-02-21T16:09:34.138Z,9.61
2023-02-21T16:12:23.738Z,9.61
2023-02-21T16:15:15.546Z,9.53
2023-02-21T16:18:03.769Z,9.50
2023-02-21T16:20:49.860Z,9.50
2023-02-21T16:23:38.759Z,9.39
2023-02-21T16:26:28.847Z,9.43
2023-02-21T16:29:15.811Z,9.33
2023-02-21T16:32:01.838Z,9.37
2023-02-21T16:34:47.660Z,9.36
2023-02-21T16:37:33.632Z,9.38
2023-02-21T16:40:23.663Z,9.40
2023-02-21T16:43:09.870Z,9.37
2023-02-21T16:45:56.054Z,9.34
2023-02-21T16:48:42.213Z,9.32
2023-02-21T16:51:33.367Z,9.33
2023-02-21T16:54:19.022Z,9.25
2023-02-21T16:57:06.082Z,9.28
2023-02-21T16:59:51.868Z,9.25
2023-02-21T17:02:37.679Z,9.25
2023-02-21T17:05:24.749Z,9.21
2023-02-21T17:08:10.681Z,9.17
2023-02-21T17:10:56.709Z,9.14
2023-02-21T17:13:44.041Z,9.10
2023-02-21T17:16:29.820Z,9.09
2023-02-21T17:19:16.257Z,9.12
2023-02-21T17:22:02.394Z,9.09
2023-02-21T17:24:48.289Z,9.04
2023-02-21T17:27:34.121Z,8.99
2023-02-21T17:30:23.190Z,8.98
2023-02-21T17:33:10.934Z,8.98
2023-02-21T17:35:57.204Z,8.95
2023-02-21T17:38:43.218Z,8.93
2023-02-21T17:41:29.050Z,8.90
2023-02-21T17:44:15.334Z,8.90
2023-02-21T17:47:02.853Z,8.86
2023-02-21T17:49:48.537Z,8.82
2023-02-21T17:52:34.435Z,8.87
2023-02-21T17:55:21.042Z,8.85
2023-02-21T17:58:07.122Z,8.81
2023-02-21T18:00:55.304Z,8.76
2023-02-21T18:03:42.342Z,8.77
2023-02-21T18:06:28.229Z,8.77
2023-02-21T18:09:14.184Z,8.75
2023-02-21T18:12:00.672Z,8.78
2023-02-21T18:14:46.376Z,8.72
2023-02-21T18:17:32.127Z,8.72
2023-02-21T18:20:19.314Z,8.70
2023-02-21T18:23:06.363Z,8.67
2023-02-21T18:25:52.501Z,8.66
2023-02-21T18:28:38.422Z,8.63
2023-02-21T18:31:24.463Z,8.62
2023-02-21T18:34:10.313Z,8.59
2023-02-21T18:36:57.213Z,8.57
2023-02-21T18:39:43.188Z,8.53
2023-02-21T18:42:29.049Z,8.57
2023-02-21T18:45:15.173Z,8.55
2023-02-21T18:48:01.210Z,8.56
2023-02-21T18:50:47.182Z,8.56
2023-02-21T18:53:34.518Z,8.52
2023-02-21T18:56:21.111Z,8.52
2023-02-21T18:59:06.849Z,8.48
2023-02-21T19:01:53.857Z,8.52
2023-02-21T19:04:39.768Z,8.48
2023-02-21T19:07:25.436Z,8.46
2023-02-21T19:10:12.935Z,8.48
2023-02-21T19:13:01.837Z,8.47
2023-02-21T19:15:47.649Z,8.46
2023-02-21T19:18:35.456Z,8.46
2023-02-21T19:21:21.523Z,8.45
2023-02-21T19:24:07.366Z,8.45
2023-02-21T19:26:54.725Z,8.42
2023-02-21T19:29:40.757Z,8.41
2023-02-21T19:32:26.547Z,8.39
2023-02-21T19:35:12.408Z,8.36
2023-02-21T19:37:58.784Z,8.32
2023-02-21T19:40:44.907Z,8.31
2023-02-21T19:43:32.797Z,8.33
2023-02-21T19:46:19.676Z,8.32
2023-02-21T19:49:06.841Z,8.29
2023-02-21T19:51:53.714Z,8.31
2023-02-21T19:54:39.894Z,8.29
2023-02-21T19:57:25.622Z,8.27
2023-02-21T20:00:13.412Z,8.28
2023-02-21T20:02:59.600Z,8.27
2023-02-21T20:05:45.377Z,8.29
2023-02-21T20:08:31.180Z,8.26
2023-02-21T20:11:17.574Z,8.30
2023-02-21T20:14:03.978Z,8.28
2023-02-21T20:16:53.637Z,8.27
2023-02-21T20:19:39.986Z,8.24
2023-02-21T20:22:31.176Z,8.25
2023-02-21T20:25:17.440Z,8.22
2023-02-21T20:28:03.953Z,8.22
2023-02-21T20:30:50.460Z,8.23
2023-02-21T20:33:38.327Z,8.23
2023-02-21T20:36:28.514Z,8.21
2023-02-21T20:39:19.349Z,8.23
2023-02-21T20:42:06.879Z,8.24
2023-02-21T20:44:53.091Z,8.22
2023-02-21T20:47:39.026Z,8.22
2023-02-21T20:50:26.602Z,8.19
2023-02-21T20:53:12.948Z,8.21
2023-02-21T20:55:59.178Z,8.23
2023-02-21T20:58:45.405Z,8.23
2023-02-21T21:01:31.598Z,8.25
2023-02-21T21:04:18.533Z,8.22
2023-02-21T21:07:07.591Z,8.19
2023-02-21T21:09:53.593Z,8.18
2023-02-21T21:12:39.320Z,8.18
2023-02-21T21:15:25.709Z,8.17
2023-02-21T21:18:12.292Z,8.16
2023-02-21T21:20:57.958Z,8.16
2023-02-21T21:23:45.053Z,8.15
2023-02-21T21:26:30.891Z,8.16
2023-02-21T21:29:16.712Z,8.16
2023-02-21T21:32:05.313Z,8.15
2023-02-21T21:34:52.624Z,8.12
2023-02-21T21:37:38.709Z,8.11
2023-02-21T21:40:26.917Z,8.12
2023-02-21T21:43:12.803Z,8.09
2023-02-21T21:45:58.826Z,8.10
2023-02-21T21:48:45.296Z,8.11
2023-02-21T21:51:31.533Z,8.12
2023-02-21T21:54:20.485Z,8.12
2023-02-21T21:57:07.920Z,8.11
2023-02-21T21:59:53.935Z,8.09
2023-02-21T22:02:39.949Z,8.08
2023-02-21T22:05:26.495Z,8.08
2023-02-21T22:08:16.313Z,8.06
2023-02-21T22:11:02.399Z,8.05
2023-02-21T22:13:49.509Z,8.06
2023-02-21T22:16:36.369Z,8.04
2023-02-21T22:19:23.366Z,8.04
2023-02-21T22:22:09.952Z,8.04
2023-02-21T22:24:56.276Z,8.03
2023-02-21T22:27:42.267Z,8.02
2023-02-21T22:30:29.444Z,8.00
2023-02-21T22:33:17.776Z,7.98
2023-02-21T22:36:04.104Z,7.99
2023-02-21T22:38:50.188Z,7.97
2023-02-21T22:41:36.608Z,7.96
2023-02-21T22:44:24.600Z,7.94
2023-02-21T22:47:11.970Z,7.92
2023-02-21T22:49:58.126Z,7.94
2023-02-21T22:52:44.000Z,7.92
2023-02-21T22:55:30.179Z,7.92
2023-02-21T22:58:20.173Z,7.89
2023-02-21T23:01:08.274Z,7.86
2023-02-21T23:04:05.964Z,7.87
2023-02-21T23:06:53.468Z,7.85
2023-02-21T23:09:39.447Z,7.86
2023-02-21T23:12:25.248Z,7.84
2023-02-21T23:15:13.000Z,7.85
2023-02-21T23:17:58.936Z,7.83
2023-02-21T23:20:46.124Z,7.81
2023-02-21T23:23:32.057Z,7.81
2023-02-21T23:26:19.391Z,7.79
2023-02-21T23:29:05.424Z,7.80
2023-02-21T23:31:51.360Z,7.80
2023-02-21T23:34:41.189Z,7.77
2023-02-21T23:37:28.429Z,7.78
2023-02-21T23:40:17.704Z,7.77
2023-02-21T23:43:03.900Z,7.76
2023-02-21T23:45:50.567Z,7.73
2023-02-21T23:48:37.424Z,7.74
2023-02-21T23:51:26.228Z,7.72
2023-02-21T23:54:15.007Z,7.71
2023-02-21T23:57:01.043Z,7.71
2023-02-21T23:59:47.165Z,7.72
